createdAt,value
2023-02-08T00:01:26.441Z,2.60
2023-02-08T00:03:56.086Z,2.75
2023-02-08T00:06:23.639Z,2.40
2023-02-08T00:08:50.971Z,2.88
2023-02-08T00:11:20.482Z,2.60
2023-02-08T00:13:50.078Z,2.70
2023-02-08T00:16:20.424Z,2.70
2023-02-08T00:18:47.825Z,2.53
2023-02-08T00:21:17.547Z,2.80
2023-02-08T00:23:48.639Z,2.72
2023-02-08T00:26:18.269Z,2.65
2023-02-08T00:28:45.816Z,2.83
2023-02-08T00:31:13.442Z,2.65
2023-02-08T00:33:41.404Z,2.30
2023-02-08T00:36:09.416Z,3.03
2023-02-08T00:38:36.842Z,2.83
2023-02-08T00:41:04.917Z,2.90
2023-02-08T00:43:32.295Z,2.92
2023-02-08T00:46:03.391Z,2.22
2023-02-08T00:48:31.672Z,2.58
2023-02-08T00:51:09.099Z,2.60
2023-02-08T00:53:38.238Z,2.70
2023-02-08T00:56:06.718Z,2.60
2023-02-08T00:58:37.258Z,2.58
2023-02-08T01:01:05.848Z,3.03
2023-02-08T01:03:37.276Z,2.90
2023-02-08T01:06:06.972Z,2.35
2023-02-08T01:08:40.353Z,2.78
2023-02-08T01:11:14.703Z,2.85
2023-02-08T01:13:42.367Z,2.85
2023-02-08T01:16:12.878Z,2.60
2023-02-08T01:18:42.083Z,2.60
2023-02-08T01:21:18.776Z,2.60
2023-02-08T01:23:52.296Z,2.67
2023-02-08T01:26:21.100Z,2.47
2023-02-08T01:28:50.959Z,2.60
2023-02-08T01:31:23.243Z,2.92
2023-02-08T01:33:51.326Z,2.40
2023-02-08T01:36:18.992Z,2.60
2023-02-08T01:38:46.532Z,2.65
2023-02-08T01:41:21.672Z,2.70
2023-02-08T01:44:18.508Z,2.30
2023-02-08T01:46:48.713Z,2.60
2023-02-08T01:49:25.615Z,2.58
2023-02-08T01:52:06.078Z,2.58
2023-02-08T01:54:42.198Z,2.55
2023-02-08T01:57:09.365Z,2.50
2023-02-08T01:59:42.801Z,2.20
2023-02-08T02:02:15.832Z,2.25
2023-02-08T02:04:46.400Z,2.60
2023-02-08T02:07:19.342Z,2.70
2023-02-08T02:10:10.277Z,2.70
2023-02-08T02:12:40.599Z,2.90
2023-02-08T02:15:09.323Z,2.20
2023-02-08T02:17:40.643Z,2.45
2023-02-08T02:20:15.293Z,2.80
2023-02-08T02:23:11.269Z,2.28
2023-02-08T02:26:02.469Z,2.70
2023-02-08T02:28:38.287Z,2.60
2023-02-08T02:31:25.476Z,2.17
2023-02-08T02:34:31.603Z,2.60
2023-02-08T02:37:07.830Z,2.28
2023-02-08T02:40:08.628Z,3.10
2023-02-08T02:43:16.767Z,2.70
2023-02-08T02:46:17.451Z,2.70
2023-02-08T02:49:13.577Z,2.50
2023-02-08T02:51:57.733Z,2.38
2023-02-08T02:54:32.174Z,2.72
2023-02-08T02:57:07.860Z,2.40
2023-02-08T02:59:37.260Z,2.53
2023-02-08T03:02:06.761Z,2.80
2023-02-08T03:04:34.069Z,2.53
2023-02-08T03:07:14.508Z,3.00
2023-02-08T03:10:07.082Z,3.10
2023-02-08T03:12:56.419Z,2.60
2023-02-08T03:15:34.614Z,2.90
2023-02-08T03:18:28.692Z,2.65
2023-02-08T03:21:15.269Z,2.67
2023-02-08T03:24:05.453Z,2.20
2023-02-08T03:26:45.951Z,2.67
2023-02-08T03:29:42.151Z,2.28
2023-02-08T03:32:16.885Z,2.50
2023-02-08T03:34:59.204Z,2.72
2023-02-08T03:38:00.934Z,2.60
2023-02-08T03:40:39.607Z,2.75
2023-02-08T03:43:18.021Z,2.55
2023-02-08T03:46:04.895Z,2.75
2023-02-08T03:48:34.752Z,2.45
2023-02-08T03:51:03.839Z,2.67
2023-02-08T03:53:38.293Z,2.35
2023-02-08T03:56:12.066Z,2.30
2023-02-08T03:58:46.693Z,2.30
2023-02-08T04:01:19.992Z,2.60
2023-02-08T04:06:17.649Z,2.83
2023-02-08T04:08:44.946Z,2.60
2023-02-08T04:11:19.352Z,2.30
2023-02-08T04:13:50.191Z,2.42
2023-02-08T04:16:20.011Z,2.30
2023-02-08T04:18:47.143Z,2.50
2023-02-08T04:21:14.540Z,2.40
2023-02-08T04:23:41.650Z,2.60
2023-02-08T04:26:11.458Z,2.65
2023-02-08T04:28:41.066Z,2.50
2023-02-08T04:31:08.752Z,2.60
2023-02-08T04:33:38.499Z,2.50
2023-02-08T04:36:07.114Z,2.50
2023-02-08T04:38:34.397Z,2.92
2023-02-08T04:41:04.031Z,2.65
2023-02-08T04:43:31.859Z,2.67
2023-02-08T04:46:01.900Z,2.88
2023-02-08T04:48:29.958Z,2.50
2023-02-08T04:51:00.621Z,2.60
2023-02-08T04:53:27.734Z,2.65
2023-02-08T04:55:56.215Z,2.40
2023-02-08T04:58:25.712Z,2.30
2023-02-08T05:00:53.341Z,2.40
2023-02-08T05:03:20.618Z,2.60
2023-02-08T05:05:56.995Z,2.67
2023-02-08T05:08:24.381Z,2.85
2023-02-08T05:10:51.959Z,2.70
2023-02-08T05:13:19.214Z,2.78
2023-02-08T05:15:48.781Z,2.75
2023-02-08T05:18:16.066Z,2.95
2023-02-08T05:20:43.394Z,2.72
2023-02-08T05:23:11.191Z,2.70
2023-02-08T05:25:39.510Z,2.20
2023-02-08T05:28:06.666Z,2.75
2023-02-08T05:30:34.049Z,2.50
2023-02-08T05:33:03.604Z,2.60
2023-02-08T05:35:30.998Z,2.50
2023-02-08T05:37:58.345Z,2.83
2023-02-08T05:40:25.802Z,2.55
2023-02-08T05:42:53.140Z,2.63
2023-02-08T05:45:20.545Z,2.80
2023-02-08T05:47:47.906Z,2.72
2023-02-08T05:50:15.139Z,2.80
2023-02-08T05:52:42.367Z,2.70
2023-02-08T05:55:13.187Z,2.72
2023-02-08T05:57:40.314Z,2.53
2023-02-08T06:00:13.379Z,2.60
2023-02-08T06:02:51.171Z,2.80
2023-02-08T06:05:18.925Z,2.90
2023-02-08T06:07:48.525Z,2.50
2023-02-08T06:10:17.231Z,3.05
2023-02-08T06:12:44.737Z,2.70
2023-02-08T06:15:15.499Z,2.47
2023-02-08T06:17:42.873Z,3.42
2023-02-08T06:20:14.854Z,3.30
2023-02-08T06:22:42.229Z,3.22
2023-02-08T06:25:12.327Z,2.95
2023-02-08T06:27:42.070Z,3.13
2023-02-08T06:30:11.171Z,3.10
2023-02-08T06:32:40.768Z,3.10
2023-02-08T06:35:11.312Z,3.13
2023-02-08T06:37:39.628Z,2.63
2023-02-08T06:40:07.722Z,2.78
2023-02-08T06:42:37.690Z,3.03
2023-02-08T06:45:05.731Z,3.05
2023-02-08T06:47:38.453Z,2.92
2023-02-08T06:50:06.445Z,3.17
2023-02-08T06:52:33.875Z,3.00
2023-02-08T06:55:01.164Z,3.30
2023-02-08T06:57:30.529Z,3.67
2023-02-08T06:59:57.838Z,3.28
2023-02-08T07:02:25.182Z,3.28
2023-02-08T07:04:55.131Z,3.25
2023-02-08T07:07:22.286Z,2.80
2023-02-08T07:09:50.914Z,2.95
2023-02-08T07:12:20.725Z,2.95
2023-02-08T07:14:47.828Z,3.17
2023-02-08T07:17:17.635Z,2.95
2023-02-08T07:19:44.874Z,2.60
2023-02-08T07:22:12.099Z,3.28
2023-02-08T07:24:41.216Z,3.08
2023-02-08T07:27:10.994Z,3.20
2023-02-08T07:29:41.205Z,3.28
2023-02-08T07:32:08.784Z,3.75
2023-02-08T07:34:37.884Z,3.70
2023-02-08T07:37:05.324Z,3.28
2023-02-08T07:39:32.763Z,3.30
2023-02-08T07:42:01.195Z,3.38
2023-02-08T07:44:34.064Z,3.08
2023-02-08T07:47:02.019Z,3.05
2023-02-08T07:49:31.404Z,3.35
2023-02-08T07:52:01.719Z,3.20
2023-02-08T07:54:30.224Z,3.33
2023-02-08T07:57:02.528Z,3.40
2023-02-08T08:01:58.037Z,3.28
2023-02-08T08:04:27.880Z,2.80
2023-02-08T08:06:57.077Z,3.33
2023-02-08T08:09:26.956Z,2.95
2023-02-08T08:11:54.088Z,3.88
2023-02-08T08:14:26.174Z,3.35
2023-02-08T08:16:53.440Z,3.50
2023-02-08T08:19:22.884Z,2.92
2023-02-08T08:21:53.314Z,3.58
2023-02-08T08:24:25.624Z,3.60
2023-02-08T08:26:55.756Z,3.83
2023-02-08T08:29:27.546Z,3.15
2023-02-08T08:31:58.196Z,3.30
2023-02-08T08:34:29.833Z,3.60
2023-02-08T08:36:58.930Z,3.40
2023-02-08T08:39:29.612Z,3.00
2023-02-08T08:42:00.765Z,2.83
2023-02-08T08:44:27.883Z,3.17
2023-02-08T08:46:57.132Z,3.00
2023-02-08T08:49:25.189Z,3.20
2023-02-08T08:51:52.749Z,3.50
2023-02-08T08:54:21.491Z,3.50
2023-02-08T08:56:51.145Z,3.05
2023-02-08T08:59:18.450Z,3.22
2023-02-08T09:01:48.058Z,3.85
2023-02-08T09:04:15.359Z,3.35
2023-02-08T09:06:46.836Z,3.60
2023-02-08T09:09:13.976Z,3.35
2023-02-08T09:11:41.197Z,3.20
2023-02-08T09:14:08.559Z,3.25
2023-02-08T09:16:36.119Z,3.63
2023-02-08T09:19:05.880Z,3.58
2023-02-08T09:21:33.735Z,4.07
2023-02-08T09:24:04.531Z,4.35
2023-02-08T09:26:31.774Z,3.78
2023-02-08T09:28:59.810Z,3.60
2023-02-08T09:31:31.878Z,3.40
2023-02-08T09:34:01.176Z,3.42
2023-02-08T09:36:37.321Z,3.60
2023-02-08T09:39:12.989Z,3.22
2023-02-08T09:42:20.894Z,3.67
2023-02-08T09:45:13.100Z,3.88
2023-02-08T09:47:51.306Z,5.20
2023-02-08T09:50:32.531Z,4.82
2023-02-08T09:55:36.774Z,5.40
2023-02-08T09:58:16.120Z,5.43
2023-02-08T10:00:50.710Z,5.63
2023-02-08T10:03:38.664Z,5.32
2023-02-08T10:06:12.301Z,6.60
2023-02-08T10:08:41.912Z,6.22
2023-02-08T10:11:46.521Z,6.10
2023-02-08T10:14:29.051Z,5.20
2023-02-08T10:17:11.124Z,5.53
2023-02-08T10:19:54.724Z,5.13
2023-02-08T10:23:13.700Z,6.38
2023-02-08T10:25:56.635Z,5.65
2023-02-08T10:28:52.052Z,5.80
2023-02-08T10:31:51.400Z,6.82
2023-02-08T10:34:37.388Z,6.25
2023-02-08T10:37:12.781Z,6.03
2023-02-08T10:39:43.021Z,6.30
2023-02-08T10:42:18.602Z,6.95
2023-02-08T10:45:10.263Z,6.10
2023-02-08T10:48:00.351Z,5.75
2023-02-08T10:50:36.899Z,5.15
2023-02-08T10:53:05.321Z,5.05
2023-02-08T10:55:36.450Z,5.65
2023-02-08T10:58:05.808Z,5.18
2023-02-08T11:00:39.313Z,5.00
2023-02-08T11:03:30.427Z,4.78
2023-02-08T11:06:00.077Z,4.95
2023-02-08T11:08:28.939Z,4.60
2023-02-08T11:11:09.823Z,4.75
2023-02-08T11:13:44.444Z,4.68
2023-02-08T11:16:22.221Z,5.15
2023-02-08T11:18:58.325Z,4.63
2023-02-08T11:21:29.654Z,4.47
2023-02-08T11:24:03.556Z,4.60
2023-02-08T11:26:30.756Z,5.07
2023-02-08T11:29:13.223Z,4.57
2023-02-08T11:31:56.740Z,5.10
2023-02-08T11:36:52.823Z,5.47
2023-02-08T11:39:35.154Z,5.13
2023-02-08T11:42:05.294Z,6.15
2023-02-08T11:44:41.624Z,8.05
2023-02-08T11:47:16.675Z,7.03
2023-02-08T11:49:53.132Z,7.18
2023-02-08T11:52:27.518Z,7.00
2023-02-08T11:55:12.520Z,7.30
2023-02-08T11:58:03.654Z,6.60
2023-02-08T12:00:36.599Z,7.07
2023-02-08T12:03:05.707Z,6.57
2023-02-08T12:05:53.236Z,6.05
2023-02-08T12:08:20.380Z,6.53
2023-02-08T12:11:13.956Z,6.80
2023-02-08T12:13:53.469Z,6.70
2023-02-08T12:16:53.285Z,6.00
2023-02-08T12:19:23.339Z,6.43
2023-02-08T12:22:05.997Z,5.53
2023-02-08T12:24:48.733Z,5.57
2023-02-08T12:27:37.572Z,5.63
2023-02-08T12:30:19.864Z,5.53
2023-02-08T12:33:39.325Z,5.72
2023-02-08T12:36:19.016Z,5.65
2023-02-08T12:39:20.821Z,5.13
2023-02-08T12:41:57.844Z,5.18
2023-02-08T12:44:40.306Z,4.93
2023-02-08T12:47:37.708Z,5.72
2023-02-08T12:50:52.516Z,4.65
2023-02-08T12:53:52.336Z,5.00
2023-02-08T12:56:25.062Z,5.38
2023-02-08T12:59:01.885Z,4.77
2023-02-08T13:04:36.104Z,4.32
2023-02-08T13:07:11.370Z,4.60
2023-02-08T13:09:59.587Z,4.60
2023-02-08T13:12:34.263Z,5.13
2023-02-08T13:15:11.969Z,5.25
2023-02-08T13:17:53.364Z,4.60
2023-02-08T13:20:20.871Z,4.60
2023-02-08T13:22:50.485Z,5.32
2023-02-08T13:25:31.580Z,5.65
2023-02-08T13:28:09.312Z,5.00
2023-02-08T13:30:40.091Z,5.28
2023-02-08T13:33:22.161Z,4.78
2023-02-08T13:35:53.267Z,4.55
2023-02-08T13:38:30.596Z,4.50
2023-02-08T13:41:20.956Z,4.10
2023-02-08T13:44:01.296Z,4.45
2023-02-08T13:46:43.962Z,4.53
2023-02-08T13:49:40.684Z,4.30
2023-02-08T13:52:09.597Z,4.53
2023-02-08T13:54:37.577Z,4.50
2023-02-08T13:57:59.917Z,4.20
2023-02-08T14:00:31.467Z,3.90
2023-02-08T14:03:27.342Z,4.00
2023-02-08T14:05:58.068Z,4.25
2023-02-08T14:08:52.032Z,3.42
2023-02-08T14:11:49.687Z,3.63
2023-02-08T14:14:25.601Z,3.60
2023-02-08T14:17:05.184Z,4.05
2023-02-08T14:19:43.703Z,3.72
2023-02-08T14:22:10.811Z,4.55
2023-02-08T14:24:52.870Z,3.60
2023-02-08T14:27:37.909Z,3.80
2023-02-08T14:30:08.122Z,4.68
2023-02-08T14:32:41.383Z,3.85
2023-02-08T14:35:20.619Z,4.68
2023-02-08T14:38:10.910Z,4.22
2023-02-08T14:40:51.279Z,5.22
2023-02-08T14:43:18.761Z,5.05
2023-02-08T14:45:50.587Z,4.43
2023-02-08T14:48:28.718Z,5.25
2023-02-08T14:51:08.867Z,4.22
2023-02-08T14:53:42.073Z,5.57
2023-02-08T14:56:21.608Z,4.80
2023-02-08T14:58:55.533Z,4.13
2023-02-08T15:01:28.981Z,3.85
2023-02-08T15:04:02.813Z,4.65
2023-02-08T15:06:39.659Z,4.38
2023-02-08T15:09:29.652Z,4.40
2023-02-08T15:12:04.040Z,4.00
2023-02-08T15:14:35.691Z,4.03
2023-02-08T15:17:03.171Z,4.20
2023-02-08T15:19:43.153Z,4.40
2023-02-08T15:22:27.836Z,4.10
2023-02-08T15:27:30.658Z,3.80
2023-02-08T15:30:01.075Z,4.47
2023-02-08T15:32:30.091Z,3.92
2023-02-08T15:35:03.838Z,4.93
2023-02-08T15:37:34.280Z,4.38
2023-02-08T15:40:04.570Z,3.67
2023-02-08T15:42:34.010Z,4.40
2023-02-08T15:45:03.145Z,4.35
2023-02-08T15:47:36.392Z,4.30
2023-02-08T15:52:38.642Z,4.60
2023-02-08T15:55:16.113Z,3.90
2023-02-08T15:57:46.224Z,4.57
2023-02-08T16:00:24.380Z,4.28
2023-02-08T16:02:55.060Z,4.70
2023-02-08T16:05:34.545Z,4.45
2023-02-08T16:08:05.022Z,4.32
2023-02-08T16:10:33.871Z,4.53
2023-02-08T16:13:05.961Z,4.47
2023-02-08T16:15:47.436Z,4.50
2023-02-08T16:18:34.671Z,4.05
2023-02-08T16:21:06.518Z,4.13
2023-02-08T16:23:40.870Z,4.00
2023-02-08T16:26:35.107Z,4.60
2023-02-08T16:29:10.775Z,3.80
2023-02-08T16:31:49.001Z,3.90
2023-02-08T16:34:19.246Z,4.03
2023-02-08T16:36:52.651Z,3.70
2023-02-08T16:39:36.017Z,3.97
2023-02-08T16:42:15.214Z,4.18
2023-02-08T16:45:09.675Z,4.00
2023-02-08T16:47:38.666Z,3.88
2023-02-08T16:50:07.615Z,3.97
2023-02-08T16:52:35.419Z,3.47
2023-02-08T16:55:03.508Z,3.40
2023-02-08T16:57:45.897Z,3.63
2023-02-08T17:00:25.428Z,3.28
2023-02-08T17:02:53.883Z,3.08
2023-02-08T17:05:27.348Z,3.40
2023-02-08T17:07:58.437Z,3.38
2023-02-08T17:10:31.940Z,3.37
2023-02-08T17:13:18.788Z,3.17
2023-02-08T17:15:54.385Z,4.05
2023-02-08T17:18:22.505Z,3.63
2023-02-08T17:20:57.884Z,3.05
2023-02-08T17:23:52.445Z,3.40
2023-02-08T17:26:29.374Z,4.18
2023-02-08T17:28:59.353Z,4.22
2023-02-08T17:31:29.504Z,4.00
2023-02-08T17:34:24.501Z,4.30
2023-02-08T17:40:38.261Z,4.63
2023-02-08T17:43:06.940Z,4.60
2023-02-08T17:45:53.027Z,4.53
2023-02-08T17:48:20.384Z,4.72
2023-02-08T17:50:50.958Z,4.40
2023-02-08T17:53:18.908Z,4.90
2023-02-08T17:55:46.958Z,4.63
2023-02-08T17:58:14.424Z,4.65
2023-02-08T18:00:44.321Z,4.57
2023-02-08T18:03:12.271Z,4.50
2023-02-08T18:05:42.262Z,5.07
2023-02-08T18:08:11.758Z,4.80
2023-02-08T18:10:39.093Z,5.72
2023-02-08T18:13:06.604Z,4.90
2023-02-08T18:15:34.123Z,5.75
2023-02-08T18:18:03.980Z,5.15
2023-02-08T18:20:31.203Z,5.60
2023-02-08T18:23:00.671Z,5.57
2023-02-08T18:25:29.069Z,6.13
2023-02-08T18:27:56.573Z,5.55
2023-02-08T18:30:25.560Z,5.20
2023-02-08T18:32:55.684Z,5.63
2023-02-08T18:35:23.155Z,5.32
2023-02-08T18:37:50.549Z,5.78
2023-02-08T18:40:18.177Z,5.28
2023-02-08T18:42:45.713Z,5.93
2023-02-08T18:45:12.880Z,5.53
2023-02-08T18:47:42.438Z,5.80
2023-02-08T18:50:10.064Z,5.75
2023-02-08T18:52:37.444Z,5.00
2023-02-08T18:55:04.982Z,5.15
2023-02-08T18:57:38.796Z,6.00
2023-02-08T19:00:06.651Z,4.55
2023-02-08T19:02:33.946Z,5.38
2023-02-08T19:05:01.385Z,4.88
2023-02-08T19:07:35.054Z,6.03
2023-02-08T19:10:02.747Z,6.03
2023-02-08T19:12:30.368Z,6.97
2023-02-08T19:14:57.641Z,6.10
2023-02-08T19:17:24.873Z,6.00
2023-02-08T19:19:57.885Z,6.07
2023-02-08T19:22:30.601Z,5.80
2023-02-08T19:25:00.442Z,5.47
2023-02-08T19:27:27.893Z,5.40
2023-02-08T19:29:56.485Z,5.55
2023-02-08T19:32:24.166Z,5.93
2023-02-08T19:34:51.615Z,5.05
2023-02-08T19:37:18.951Z,4.93
2023-02-08T19:39:49.676Z,5.05
2023-02-08T19:42:17.149Z,5.30
2023-02-08T19:44:44.280Z,4.80
2023-02-08T19:47:12.199Z,4.47
2023-02-08T19:49:39.492Z,5.18
2023-02-08T19:52:06.843Z,5.07
2023-02-08T19:54:34.160Z,5.15
2023-02-08T19:57:01.564Z,4.97
2023-02-08T19:59:34.188Z,4.70
2023-02-08T20:02:02.246Z,5.00
2023-02-08T20:04:29.802Z,4.68
2023-02-08T20:06:57.214Z,5.15
2023-02-08T20:09:24.364Z,4.68
2023-02-08T20:11:59.748Z,4.35
2023-02-08T20:14:32.827Z,4.68
2023-02-08T20:17:01.574Z,4.30
2023-02-08T20:19:29.447Z,3.50
2023-02-08T20:21:57.590Z,3.78
2023-02-08T20:24:24.872Z,4.53
2023-02-08T20:26:52.232Z,4.50
2023-02-08T20:29:19.623Z,3.90
2023-02-08T20:31:49.104Z,4.38
2023-02-08T20:34:21.797Z,4.10
2023-02-08T20:37:05.651Z,4.38
2023-02-08T20:39:38.026Z,4.03
2023-02-08T20:42:06.332Z,4.15
2023-02-08T20:44:33.515Z,3.70
2023-02-08T20:47:01.071Z,4.03
2023-02-08T20:49:29.411Z,4.40
2023-02-08T20:51:58.153Z,3.80
2023-02-08T20:54:25.621Z,3.95
2023-02-08T20:56:54.136Z,4.20
2023-02-08T20:59:21.911Z,3.67
2023-02-08T21:01:49.128Z,3.78
2023-02-08T21:04:23.063Z,3.97
2023-02-08T21:06:52.562Z,4.00
2023-02-08T21:09:20.377Z,3.78
2023-02-08T21:11:52.313Z,3.83
2023-02-08T21:14:23.063Z,4.20
2023-02-08T21:16:55.972Z,3.58
2023-02-08T21:19:29.761Z,3.80
2023-02-08T21:22:02.661Z,4.28
2023-02-08T21:24:30.797Z,3.75
2023-02-08T21:26:58.290Z,3.90
2023-02-08T21:29:26.227Z,4.25
2023-02-08T21:31:54.755Z,3.70
2023-02-08T21:34:22.983Z,3.78
2023-02-08T21:36:53.650Z,3.88
2023-02-08T21:39:23.408Z,3.53
2023-02-08T21:41:52.892Z,3.40
2023-02-08T21:44:20.189Z,4.00
2023-02-08T21:46:50.417Z,3.47
2023-02-08T21:49:36.467Z,3.60
2023-02-08T21:52:22.694Z,3.70
2023-02-08T21:54:53.653Z,3.40
2023-02-08T21:57:26.764Z,3.60
2023-02-08T21:59:57.747Z,3.47
2023-02-08T22:02:28.575Z,4.38
2023-02-08T22:05:16.554Z,3.38
2023-02-08T22:07:45.422Z,3.78
2023-02-08T22:10:15.757Z,3.88
2023-02-08T22:12:47.103Z,3.25
2023-02-08T22:15:17.645Z,3.50
2023-02-08T22:17:45.380Z,3.58
2023-02-08T22:20:15.591Z,4.07
2023-02-08T22:22:45.704Z,3.63
2023-02-08T22:25:17.857Z,3.75
2023-02-08T22:27:49.833Z,3.50
2023-02-08T22:30:18.632Z,3.30
2023-02-08T22:32:48.174Z,3.50
2023-02-08T22:35:17.439Z,3.45
2023-02-08T22:37:47.579Z,3.38
2023-02-08T22:40:16.985Z,3.50
2023-02-08T22:42:44.303Z,3.63
2023-02-08T22:45:11.774Z,3.13
2023-02-08T22:47:39.548Z,3.60
2023-02-08T22:50:07.878Z,3.63
2023-02-08T22:52:35.470Z,3.28
2023-02-08T22:55:05.740Z,3.22
2023-02-08T22:57:36.314Z,3.47
2023-02-08T23:00:06.227Z,3.30
2023-02-08T23:02:33.611Z,4.07
2023-02-08T23:05:00.958Z,3.70
2023-02-08T23:07:28.546Z,3.20
2023-02-08T23:09:57.023Z,4.07
2023-02-08T23:12:24.150Z,3.33
2023-02-08T23:14:51.498Z,3.53
2023-02-08T23:17:18.603Z,3.05
2023-02-08T23:19:48.252Z,3.40
2023-02-08T23:22:15.383Z,3.50
2023-02-08T23:24:42.576Z,3.65
2023-02-08T23:27:10.034Z,3.42
2023-02-08T23:29:42.567Z,3.55
2023-02-08T23:32:12.492Z,3.40
2023-02-08T23:34:42.139Z,3.47
2023-02-08T23:37:11.468Z,3.60
2023-02-08T23:39:41.046Z,3.05
2023-02-08T23:42:25.412Z,3.28
2023-02-08T23:44:57.587Z,3.38
2023-02-08T23:47:25.605Z,3.67
2023-02-08T23:49:53.025Z,3.78
2023-02-08T23:52:20.804Z,3.60
2023-02-08T23:54:48.491Z,3.20
2023-02-08T23:57:17.280Z,3.38
2023-02-08T23:59:44.644Z,3.63
